Time;durP1;ratioP1;P1;durP2;ratioP2;P2;SDS_P1;SDS_P2;PMS_P1;PMS_P2;Temp;Humidity;BMP_temperature;BMP_pressure;BME280_temperature;BME280_humidity;BME280_pressure;Samples;Min_cycle;Max_cycle;Signal;HPM_P1;HPM_P2
2022/01/17 00:01:32;;;;;;;21.25;9.10;;;;;;;3.98;100.00;101182.19;5013480;28;20025;-75
2022/01/17 00:03:57;;;;;;;21.83;8.43;;;;;;;3.96;100.00;101185.69;5014796;28;20030;-75
2022/01/17 00:06:23;;;;;;;18.40;7.72;;;;;;;4.04;100.00;101172.56;5014965;28;20113;-75
2022/01/17 00:08:49;;;;;;;20.77;7.88;;;;;;;4.05;100.00;101172.56;5013302;28;20056;-75
2022/01/17 00:11:16;;;;;;;20.20;7.78;;;;;;;4.03;100.00;101187.50;5014523;28;20505;-75
2022/01/17 00:13:41;;;;;;;20.40;7.25;;;;;;;3.97;100.00;101171.59;5014545;28;20380;-75
2022/01/17 00:16:14;;;;;;;17.65;6.60;;;;;;;4.04;100.00;101176.09;5013263;28;20021;-75
2022/01/17 00:19:04;;;;;;;19.67;7.47;;;;;;;4.02;100.00;101175.19;5014561;28;20064;-75
2022/01/17 00:21:25;;;;;;;17.92;7.95;;;;;;;3.96;100.00;101185.69;5014349;28;20092;-74
2022/01/17 00:23:50;;;;;;;15.23;7.22;;;;;;;4.01;100.00;101174.28;5013216;28;20026;-75
2022/01/17 00:26:16;;;;;;;19.80;8.95;;;;;;;3.91;100.00;101177.69;5014382;28;20034;-74
2022/01/17 00:28:41;;;;;;;23.33;7.78;;;;;;;3.88;100.00;101173.25;5013050;28;20049;-75
2022/01/17 00:31:07;;;;;;;17.23;7.07;;;;;;;3.94;100.00;101182.13;5013379;28;20026;-75
2022/01/17 00:33:33;;;;;;;15.07;6.55;;;;;;;3.85;100.00;101189.06;5014610;28;20030;-75
2022/01/17 00:35:58;;;;;;;14.40;6.43;;;;;;;3.86;100.00;101188.22;5013996;28;20083;-75
2022/01/17 00:38:23;;;;;;;17.15;6.95;;;;;;;3.87;100.00;101189.97;5012803;28;20437;-75
2022/01/17 00:40:49;;;;;;;12.52;6.10;;;;;;;3.85;100.00;101199.63;5013931;28;20022;-76
2022/01/17 00:43:14;;;;;;;11.95;4.85;;;;;;;3.86;100.00;101205.81;5014054;28;20534;-75
2022/01/17 00:45:43;;;;;;;14.05;5.00;;;;;;;3.91;100.00;101202.38;5014031;28;20490;-75
2022/01/17 00:48:09;;;;;;;17.98;5.07;;;;;;;3.95;100.00;101200.63;5013871;28;20101;-75
2022/01/17 00:50:37;;;;;;;11.60;4.78;;;;;;;3.92;100.00;101195.31;5013795;28;20443;-76
2022/01/17 00:53:04;;;;;;;12.27;4.63;;;;;;;3.89;100.00;101217.28;5013908;28;20025;-74
2022/01/17 00:55:34;;;;;;;12.27;4.57;;;;;;;3.84;100.00;101210.19;5014135;28;20105;-74
2022/01/17 00:58:00;;;;;;;9.65;4.32;;;;;;;3.75;100.00;101211.84;5012563;28;20028;-74
2022/01/17 01:00:26;;;;;;;14.98;2.95;;;;;;;3.74;100.00;101232.94;5013773;28;20018;-75
2022/01/17 01:02:51;;;;;;;13.38;2.97;;;;;;;3.71;100.00;101227.66;5012621;28;20112;-74
2022/01/17 01:05:17;;;;;;;11.75;3.17;;;;;;;3.73;100.00;101223.25;5013796;28;20072;-75
2022/01/17 01:07:43;;;;;;;8.80;2.30;;;;;;;3.64;100.00;101231.94;5013813;28;20022;-75
2022/01/17 01:10:10;;;;;;;8.57;2.88;;;;;;;3.65;100.00;101234.63;5012667;28;20026;-75
2022/01/17 01:12:38;;;;;;;9.20;2.47;;;;;;;3.60;100.00;101240.69;5014124;28;20438;-75
2022/01/17 01:15:09;;;;;;;12.45;2.55;;;;;;;3.63;100.00;101231.06;5013643;28;20036;-75
2022/01/17 01:17:48;;;;;;;8.38;2.33;;;;;;;3.59;100.00;101234.50;5013948;28;20018;-74
2022/01/17 01:28:27;;;;;;;;;;;;;;;3.55;100.00;101235.34;5013791;28;20078;-74
2022/01/17 01:30:55;;;;;;;10.13;1.70;;;;;;;3.59;100.00;101218.66;5013341;28;20004;-74
2022/01/17 01:33:31;;;;;;;12.40;1.92;;;;;;;3.59;100.00;101218.66;5012092;28;20482;-74
2022/01/17 01:36:10;;;;;;;15.10;1.83;;;;;;;3.69;100.00;101217.94;5012083;28;20214;-74
2022/01/17 01:38:39;;;;;;;6.38;1.30;;;;;;;3.65;100.00;101217.88;5013446;28;20024;-74
2022/01/17 01:41:04;;;;;;;4.53;1.40;;;;;;;3.58;100.00;101222.19;5011913;28;20022;-74
2022/01/17 01:43:29;;;;;;;9.68;1.70;;;;;;;3.60;100.00;101217.81;5012199;28;20033;-74
2022/01/17 01:45:58;;;;;;;9.48;1.70;;;;;;;3.67;100.00;101224.06;5012218;28;20061;-74
2022/01/17 01:48:24;;;;;;;8.45;1.48;;;;;;;3.58;100.00;101230.97;5015811;28;20113;-74
2022/01/17 01:50:49;;;;;;;7.57;1.45;;;;;;;3.56;100.00;101234.47;5017856;28;20064;-75
2022/01/17 01:53:14;;;;;;;9.35;1.70;;;;;;;3.63;100.00;101252.19;5017445;28;20433;-75
2022/01/17 01:55:40;;;;;;;9.40;2.00;;;;;;;3.59;100.00;101245.06;5016028;28;20029;-75
2022/01/17 01:58:06;;;;;;;8.38;2.00;;;;;;;3.56;100.00;101232.72;5017126;28;20434;-75
2022/01/17 02:00:31;;;;;;;9.32;1.60;;;;;;;3.61;100.00;101242.47;5015710;28;20029;-74
2022/01/17 02:02:56;;;;;;;5.57;1.63;;;;;;;3.64;100.00;101250.41;5016986;28;20028;-75
2022/01/17 02:05:22;;;;;;;5.57;1.80;;;;;;;3.61;100.00;101238.06;5015658;28;20025;-74
2022/01/17 02:07:48;;;;;;;7.95;1.48;;;;;;;3.65;100.00;101224.06;5016825;28;20033;-74
2022/01/17 02:10:14;;;;;;;8.07;1.63;;;;;;;3.56;100.00;101237.09;5017100;28;20394;-74
2022/01/17 02:12:40;;;;;;;11.35;1.40;;;;;;;3.61;100.00;101248.63;5016769;28;20414;-74
2022/01/17 02:15:10;;;;;;;10.13;1.25;;;;;;;3.63;100.00;101249.56;5016818;28;20029;-74
2022/01/17 02:17:44;;;;;;;6.07;1.38;;;;;;;3.58;100.00;101269.72;5016785;28;20030;-74
2022/01/17 02:20:16;;;;;;;8.57;1.45;;;;;;;3.62;100.00;101247.78;5015436;28;20029;-75
2022/01/17 02:22:41;;;;;;;9.98;1.50;;;;;;;3.61;100.00;101245.97;5017077;28;20028;-74
2022/01/17 02:25:07;;;;;;;7.93;1.48;;;;;;;3.63;100.00;101252.19;5017052;28;20109;-74
2022/01/17 02:27:32;;;;;;;11.60;1.45;;;;;;;3.61;100.00;101240.69;5018590;28;20026;-75
2022/01/17 02:29:58;;;;;;;9.30;1.42;;;;;;;3.63;100.00;101231.06;5016691;28;20040;-74
2022/01/17 02:32:23;;;;;;;11.23;1.75;;;;;;;3.61;100.00;101222.22;5016418;28;20022;-74
2022/01/17 02:34:48;;;;;;;8.32;1.50;;;;;;;3.59;100.00;101218.66;5016418;28;20022;-74
2022/01/17 02:37:15;;;;;;;10.25;1.40;;;;;;;3.63;100.00;101215.22;5016554;28;20060;-74
2022/01/17 02:39:41;;;;;;;12.88;1.83;;;;;;;3.63;100.00;101219.59;5016276;28;20442;-74
2022/01/17 02:42:06;;;;;;;10.18;1.65;;;;;;;3.57;100.00;101215.13;5016182;28;20026;-74
2022/01/17 02:44:32;;;;;;;12.05;1.65;;;;;;;3.56;100.00;101210.69;5015846;28;20049;-74
2022/01/17 02:47:00;;;;;;;7.75;2.22;;;;;;;3.54;100.00;101212.44;5016207;28;20505;-74
2022/01/17 02:49:25;;;;;;;9.00;1.75;;;;;;;3.59;100.00;101216.03;5016065;28;20030;-74
2022/01/17 02:51:51;;;;;;;10.75;2.38;;;;;;;3.67;100.00;101222.31;5014734;28;20076;-74
2022/01/17 02:54:17;;;;;;;12.85;1.40;;;;;;;3.49;100.00;101212.38;5016013;28;20034;-74
2022/01/17 02:56:43;;;;;;;8.82;1.42;;;;;;;3.51;100.00;101207.09;5014750;28;20025;-74
2022/01/17 02:59:08;;;;;;;11.32;1.80;;;;;;;3.57;100.00;101202.81;5014325;28;20462;-74
2022/01/17 03:01:33;;;;;;;12.25;1.70;;;;;;;3.54;100.00;101193.94;5014662;28;20034;-74
2022/01/17 03:03:59;;;;;;;12.10;1.90;;;;;;;3.57;100.00;101194.00;5016134;28;20037;-74
2022/01/17 03:06:26;;;;;;;14.10;1.90;;;;;;;3.51;100.00;101193.91;5016153;28;20049;-74
2022/01/17 03:08:52;;;;;;;9.27;1.90;;;;;;;3.55;100.00;101195.72;5014480;28;20113;-74
2022/01/17 03:11:24;;;;;;;7.80;1.30;;;;;;;3.55;100.00;101201.00;5015745;28;20107;-74
2022/01/17 03:13:51;;;;;;;8.38;1.40;;;;;;;3.53;100.00;101197.47;5015670;28;20053;-74
2022/01/17 03:16:19;;;;;;;10.30;1.80;;;;;;;3.59;100.00;101202.81;5015124;28;20029;-74
2022/01/17 03:18:50;;;;;;;11.27;1.60;;;;;;;3.56;100.00;101192.19;5015567;28;20032;-74
2022/01/17 03:21:16;;;;;;;10.35;1.90;;;;;;;3.57;100.00;101186.97;5014190;28;20119;-74
2022/01/17 03:23:43;;;;;;;12.68;2.33;;;;;;;3.61;100.00;101179.09;5015520;28;20033;-74
2022/01/17 03:26:09;;;;;;;9.07;1.60;;;;;;;3.60;100.00;101178.19;5015750;28;20030;-74
2022/01/17 03:28:35;;;;;;;12.27;1.92;;;;;;;3.61;100.00;101187.88;5014180;28;20022;-74
2022/01/17 03:31:03;;;;;;;11.07;2.33;;;;;;;3.61;100.00;101179.94;5015336;28;20033;-74
2022/01/17 03:33:28;;;;;;;10.73;1.65;;;;;;;3.58;100.00;101178.16;5015319;28;20057;-74
2022/01/17 03:35:54;;;;;;;15.10;1.90;;;;;;;3.63;100.00;101188.81;5014068;28;20022;-74
2022/01/17 03:38:23;;;;;;;11.50;1.95;;;;;;;3.57;100.00;101200.16;5015342;28;20542;-74
2022/01/17 03:40:50;;;;;;;10.85;1.70;;;;;;;3.55;100.00;101186.06;5015072;28;20034;-74
2022/01/17 03:43:17;;;;;;;10.32;2.00;;;;;;;3.52;100.00;101191.28;5014269;28;20018;-74
2022/01/17 03:45:45;;;;;;;17.00;2.22;;;;;;;3.51;100.00;101189.50;5013813;28;20030;-74
2022/01/17 03:48:11;;;;;;;11.70;1.95;;;;;;;3.51;100.00;101204.47;5015181;28;20395;-74
2022/01/17 03:50:36;;;;;;;13.35;2.00;;;;;;;3.63;100.00;101194.09;5015140;28;20033;-74
2022/01/17 03:53:02;;;;;;;10.32;2.03;;;;;;;3.62;100.00;101197.59;5013835;28;20030;-74
2022/01/17 03:55:28;;;;;;;7.13;1.73;;;;;;;3.59;100.00;101202.81;5014851;28;20025;-74
2022/01/17 03:57:53;;;;;;;11.48;2.10;;;;;;;3.54;100.00;101199.22;5013555;28;20026;-73
2022/01/17 04:00:23;;;;;;;11.07;1.98;;;;;;;3.60;100.00;101199.31;5014757;28;20037;-73
2022/01/17 04:02:50;;;;;;;9.43;1.52;;;;;;;3.56;100.00;101202.78;5014832;28;20080;-73
2022/01/17 04:05:15;;;;;;;8.82;1.80;;;;;;;3.58;100.00;101232.75;5014758;28;20032;-73
2022/01/17 04:07:41;;;;;;;13.10;2.13;;;;;;;3.55;100.00;101230.06;5014967;28;20030;-73
2022/01/17 04:10:06;;;;;;;9.10;2.10;;;;;;;3.51;100.00;101239.69;5013378;28;20075;-73
2022/01/17 04:12:32;;;;;;;14.18;1.90;;;;;;;3.58;100.00;101238.03;5012504;28;20183;-73
2022/01/17 04:14:57;;;;;;;13.65;2.00;;;;;;;3.58;100.00;101238.91;5013442;28;20033;-73
2022/01/17 04:17:27;;;;;;;9.23;1.63;;;;;;;3.52;100.00;101237.94;5014790;28;20541;-73
2022/01/17 04:19:59;;;;;;;12.40;2.30;;;;;;;3.52;100.00;101236.19;5013355;28;20068;-74
2022/01/17 04:22:25;;;;;;;11.07;2.15;;;;;;;3.54;100.00;101236.19;5014646;28;20037;-73
2022/01/17 04:24:51;;;;;;;14.35;2.20;;;;;;;3.54;100.00;101236.19;5014660;28;20491;-73
2022/01/17 04:27:16;;;;;;;11.75;1.95;;;;;;;3.56;100.00;101237.09;5013074;28;20061;-73
2022/01/17 04:29:41;;;;;;;17.98;2.00;;;;;;;3.56;100.00;101223.91;5013517;28;20034;-73
2022/01/17 04:32:07;;;;;;;11.65;2.13;;;;;;;3.56;100.00;101226.53;5013486;28;20467;-73
2022/01/17 04:34:34;;;;;;;10.05;1.73;;;;;;;3.56;100.00;101223.91;5014162;28;20029;-73
2022/01/17 04:36:59;;;;;;;12.20;2.35;;;;;;;3.52;100.00;101220.34;5012940;28;20036;-73
2022/01/17 04:39:25;;;;;;;11.98;2.60;;;;;;;3.53;100.00;101210.69;5013958;28;20108;-74
2022/01/17 04:41:50;;;;;;;10.18;1.45;;;;;;;3.60;100.00;101209.88;5014009;28;20021;-76
2022/01/17 04:46:59;;;;;;;11.70;2.05;;;;;;;3.42;100.00;101215.78;5014307;28;20032;-74
2022/01/17 04:49:24;;;;;;;8.73;1.67;;;;;;;3.37;100.00;101207.81;5014186;28;20387;-74
2022/01/17 04:51:53;;;;;;;8.45;1.48;;;;;;;3.41;100.00;101206.97;5014271;28;20021;-75
2022/01/17 04:54:41;;;;;;;11.60;1.88;;;;;;;3.42;100.00;101214.03;5013798;28;20453;-74
2022/01/17 04:57:05;;;;;;;10.05;2.00;;;;;;;3.41;100.00;101222.81;5013610;28;20034;-74
2022/01/17 04:59:30;;;;;;;11.80;1.80;;;;;;;3.42;100.00;101224.59;5014323;28;20021;-74
2022/01/17 05:01:56;;;;;;;15.32;1.83;;;;;;;3.42;100.00;101232.53;5013644;28;20502;-74
2022/01/17 05:04:21;;;;;;;13.38;2.40;;;;;;;3.43;100.00;101218.44;5013999;28;20060;-74
2022/01/17 05:06:47;;;;;;;13.10;2.22;;;;;;;3.44;100.00;101204.38;5013742;28;20113;-75
2022/01/17 05:09:12;;;;;;;12.30;1.73;;;;;;;3.49;100.00;101211.47;5012330;28;20072;-74
2022/01/17 05:11:37;;;;;;;15.50;1.75;;;;;;;3.44;100.00;101217.59;5012442;28;20065;-74
2022/01/17 05:14:03;;;;;;;12.75;1.92;;;;;;;3.43;100.00;101217.56;5012402;28;20053;-75
2022/01/17 05:16:36;;;;;;;9.32;1.88;;;;;;;3.44;100.00;101219.34;5012373;28;20112;-74
2022/01/17 05:21:45;;;;;;;14.27;2.03;;;;;;;3.43;100.00;101244.84;5013554;28;20037;-74
2022/01/17 05:24:11;;;;;;;12.85;2.10;;;;;;;3.48;100.00;101233.50;5013032;28;20022;-74
2022/01/17 05:26:36;;;;;;;13.32;2.00;;;;;;;3.46;100.00;101250.19;5012392;28;20494;-76
2022/01/17 05:29:01;;;;;;;14.75;1.83;;;;;;;3.45;100.00;101235.19;5013373;28;20022;-74
2022/01/17 05:31:27;;;;;;;13.73;2.47;;;;;;;3.42;100.00;101243.09;5012115;28;20064;-74
2022/01/17 05:33:52;;;;;;;13.38;2.25;;;;;;;3.46;100.00;101231.69;5013656;28;20017;-74
2022/01/17 05:36:17;;;;;;;11.23;1.60;;;;;;;3.54;100.00;101236.19;5013489;28;20367;-74
2022/01/17 05:38:43;;;;;;;13.18;2.72;;;;;;;3.49;100.00;101237.88;5013471;28;20022;-74
2022/01/17 05:41:08;;;;;;;17.75;2.83;;;;;;;3.43;100.00;101238.66;5032634;22;20064;-74
2022/01/17 05:43:34;;;;;;;15.27;2.30;;;;;;;3.46;100.00;101238.72;5012971;28;20510;-75
2022/01/17 05:45:59;;;;;;;13.27;1.90;;;;;;;3.48;100.00;101237.00;5011563;28;20376;-75
2022/01/17 05:48:24;;;;;;;14.38;1.95;;;;;;;3.51;100.00;101228.22;5012753;28;20060;-74
2022/01/17 05:50:50;;;;;;;16.40;2.00;;;;;;;3.52;100.00;101232.66;5012717;28;20450;-74
2022/01/17 05:53:15;;;;;;;11.70;1.98;;;;;;;3.52;100.00;101222.97;5011417;28;20046;-74
2022/01/17 05:55:41;;;;;;;16.00;2.20;;;;;;;3.49;100.00;101219.41;5012946;28;20037;-74
2022/01/17 05:58:07;;;;;;;11.35;2.08;;;;;;;3.50;100.00;101222.09;5011469;28;20045;-75
2022/01/17 06:00:32;;;;;;;11.73;1.85;;;;;;;3.50;100.00;101221.19;5012566;28;20507;-73
2022/01/17 06:02:57;;;;;;;17.20;2.60;;;;;;;3.56;100.00;101208.06;5012752;28;20399;-73
2022/01/17 06:05:23;;;;;;;14.07;2.85;;;;;;;3.56;100.00;101208.06;5012849;28;20025;-74
2022/01/17 06:07:48;;;;;;;14.55;2.00;;;;;;;3.57;100.00;101215.13;5011243;28;20057;-74
2022/01/17 06:10:13;;;;;;;16.08;2.20;;;;;;;3.60;100.00;101215.16;5012775;28;20522;-74
2022/01/17 06:12:39;;;;;;;13.43;2.53;;;;;;;3.55;100.00;101214.22;5012548;28;20156;-74
2022/01/17 06:15:04;;;;;;;16.67;2.10;;;;;;;3.58;100.00;101220.41;5013296;28;20147;-74
2022/01/17 06:17:30;;;;;;;12.15;1.95;;;;;;;3.55;100.00;101223.03;5012722;28;20025;-74
2022/01/17 06:19:55;;;;;;;13.32;2.10;;;;;;;3.52;100.00;101211.53;5012864;28;20030;-74
2022/01/17 06:22:20;;;;;;;13.73;2.70;;;;;;;3.51;100.00;101220.31;5012657;28;20030;-75
2022/01/17 06:24:46;;;;;;;12.85;2.33;;;;;;;3.40;100.00;101212.25;5012871;28;20100;-75
2022/01/17 06:27:11;;;;;;;9.50;1.83;;;;;;;3.44;100.00;101203.50;5012727;28;20033;-74
2022/01/17 06:29:36;;;;;;;12.60;2.40;;;;;;;3.40;100.00;101202.56;5012735;28;20095;-74
2022/01/17 06:32:04;;;;;;;11.98;1.95;;;;;;;3.49;100.00;101200.91;5012385;28;20117;-75
2022/01/17 06:34:29;;;;;;;11.43;2.30;;;;;;;3.49;100.00;101195.63;5013037;28;20036;-74
2022/01/17 06:36:55;;;;;;;8.50;1.80;;;;;;;3.49;100.00;101211.47;5014500;28;20402;-74
2022/01/17 06:39:20;;;;;;;14.50;2.75;;;;;;;3.57;100.00;101202.81;5015981;28;20101;-74
2022/01/17 06:41:45;;;;;;;12.60;2.00;;;;;;;3.53;100.00;101200.09;5016072;28;20386;-74
2022/01/17 06:44:10;;;;;;;10.30;1.77;;;;;;;3.54;100.00;101207.16;5015846;28;20032;-74
2022/01/17 06:46:36;;;;;;;13.82;2.40;;;;;;;3.53;100.00;101219.47;5014493;28;20483;-74
2022/01/17 06:49:02;;;;;;;12.20;2.22;;;;;;;3.63;100.00;101215.22;5015854;28;20025;-74
2022/01/17 06:51:28;;;;;;;14.52;2.10;;;;;;;3.61;100.00;101224.84;5015895;28;20029;-75
2022/01/17 06:53:54;;;;;;;13.23;1.92;;;;;;;3.66;100.00;101236.38;5015824;28;20029;-74
2022/01/17 06:56:19;;;;;;;10.60;2.13;;;;;;;3.63;100.00;101246.91;5014243;28;20026;-74
2022/01/17 06:58:45;;;;;;;14.73;2.03;;;;;;;3.68;100.00;101252.25;5015479;28;20064;-74
2022/01/17 07:01:11;;;;;;;14.55;2.00;;;;;;;3.66;100.00;101278.63;5015540;28;20026;-74
2022/01/17 07:03:37;;;;;;;15.50;2.20;;;;;;;3.68;100.00;101281.31;5015509;28;20022;-75
2022/01/17 07:06:03;;;;;;;14.85;2.35;;;;;;;3.61;100.00;101304.09;5015774;28;20029;-74
2022/01/17 07:08:29;;;;;;;13.27;2.03;;;;;;;3.63;100.00;101305.03;5015607;28;20022;-74
2022/01/17 07:10:54;;;;;;;13.77;2.13;;;;;;;3.67;100.00;101321.78;5015341;28;20040;-74
2022/01/17 07:13:20;;;;;;;13.90;2.20;;;;;;;3.67;100.00;101319.16;5015521;28;20097;-75
2022/01/17 07:15:45;;;;;;;12.20;1.85;;;;;;;3.67;100.00;101313.88;5015324;28;20072;-75
2022/01/17 07:18:12;;;;;;;11.23;1.98;;;;;;;3.65;100.00;101276.88;5013977;28;20041;-75
2022/01/17 07:20:38;;;;;;;13.57;2.08;;;;;;;3.66;100.00;101268.06;5013980;28;20033;-74
2022/01/17 07:23:03;;;;;;;12.77;2.28;;;;;;;3.63;100.00;101283.91;5015279;28;20021;-74
2022/01/17 07:25:29;;;;;;;12.73;2.03;;;;;;;3.71;100.00;101275.19;5015170;28;20093;-74
2022/01/17 07:27:55;;;;;;;9.60;1.95;;;;;;;3.63;100.00;101283.91;5015043;28;20076;-74
2022/01/17 07:30:21;;;;;;;18.08;2.22;;;;;;;3.67;100.00;101279.53;5014989;28;20037;-74
2022/01/17 07:32:46;;;;;;;10.32;1.95;;;;;;;3.66;100.00;101294.47;5013694;28;20048;-75
2022/01/17 07:35:12;;;;;;;14.80;2.45;;;;;;;3.67;100.00;101298.03;5015028;28;20037;-74
2022/01/17 07:37:37;;;;;;;14.90;2.67;;;;;;;3.58;100.00;101275.00;5014986;28;20030;-74
2022/01/17 07:40:04;;;;;;;10.48;1.88;;;;;;;3.65;100.00;101273.34;5014905;28;20037;-74
2022/01/17 07:42:30;;;;;;;10.57;3.05;;;;;;;3.64;100.00;101258.34;5014843;28;20072;-74
2022/01/17 07:44:57;;;;;;;15.48;2.38;;;;;;;3.63;100.00;101259.22;5014813;28;20038;-74
2022/01/17 07:47:45;;;;;;;11.48;2.38;;;;;;;3.55;100.00;101269.69;5013856;28;20448;-74
2022/01/17 07:50:14;;;;;;;15.43;2.80;;;;;;;3.53;100.00;101271.41;5015020;28;20026;-74
2022/01/17 07:52:39;;;;;;;17.45;3.10;;;;;;;3.49;100.00;101272.22;5014975;28;20049;-74
2022/01/17 07:55:05;;;;;;;15.38;2.75;;;;;;;3.59;100.00;101276.78;5014730;28;20565;-74
2022/01/17 07:57:30;;;;;;;9.02;2.53;;;;;;;3.54;100.00;101268.78;5014525;28;20442;-74
2022/01/17 07:59:55;;;;;;;14.45;2.60;;;;;;;3.54;100.00;101257.31;5014863;28;20025;-74
2022/01/17 08:02:21;;;;;;;11.75;3.00;;;;;;;3.61;100.00;101250.41;5014695;28;20026;-74
2022/01/17 08:04:46;;;;;;;13.98;2.63;;;;;;;3.63;100.00;101254.84;5014707;28;20029;-74
2022/01/17 08:07:12;;;;;;;12.30;2.90;;;;;;;3.63;100.00;101262.78;5014515;28;20027;-74
2022/01/17 08:09:37;;;;;;;19.48;3.30;;;;;;;3.61;100.00;101269.75;5014444;28;20023;-74
2022/01/17 08:12:05;;;;;;;13.27;3.40;;;;;;;3.62;100.00;101278.56;5014285;28;20038;-74
2022/01/17 08:14:31;;;;;;;9.55;3.03;;;;;;;3.65;100.00;101283.91;5015024;28;20022;-74
2022/01/17 08:16:56;;;;;;;18.77;4.45;;;;;;;3.64;100.00;101276.84;5014276;28;20117;-74
2022/01/17 08:19:24;;;;;;;12.38;3.08;;;;;;;3.73;100.00;101273.47;5014490;28;20053;-74
2022/01/17 08:21:51;;;;;;;16.38;3.50;;;;;;;3.66;100.00;101252.22;5014397;28;20026;-74
2022/01/17 08:24:18;;;;;;;13.55;4.55;;;;;;;3.60;100.00;101256.53;5014421;28;20471;-74
2022/01/17 08:26:44;;;;;;;17.75;4.50;;;;;;;3.57;100.00;101253.00;5014083;28;20062;-74
2022/01/17 08:29:11;;;;;;;17.90;4.95;;;;;;;3.56;100.00;101261.78;5014210;28;20030;-74
2022/01/17 08:31:36;;;;;;;15.43;5.13;;;;;;;3.51;100.00;101262.56;5013871;28;20418;-74
2022/01/17 08:34:02;;;;;;;13.85;4.95;;;;;;;3.48;100.00;101258.13;5014075;28;20427;-74
2022/01/17 08:36:27;;;;;;;19.00;5.78;;;;;;;3.52;100.00;101261.69;5013924;28;20490;-74
2022/01/17 08:38:53;;;;;;;15.32;5.47;;;;;;;3.53;100.00;101260.84;5012628;28;20429;-74
2022/01/17 08:41:19;;;;;;;20.92;5.70;;;;;;;3.49;100.00;101273.09;5013599;28;20034;-74
2022/01/17 08:43:45;;;;;;;20.67;6.28;;;;;;;3.51;100.00;101267.84;5013817;28;20032;-74
2022/01/17 08:46:10;;;;;;;20.88;6.80;;;;;;;3.48;100.00;101263.41;5013752;28;20022;-75
2022/01/17 08:48:37;;;;;;;23.75;6.90;;;;;;;3.51;100.00;101266.09;5013632;28;20109;-75
2022/01/17 08:51:03;;;;;;;20.63;8.15;;;;;;;3.54;100.00;101259.97;5013721;28;20030;-75
2022/01/17 08:53:28;;;;;;;18.75;7.88;;;;;;;3.55;100.00;101272.31;5013847;28;20117;-74
2022/01/17 08:55:54;;;;;;;25.30;7.78;;;;;;;3.50;100.00;101276.66;5012988;28;20470;-75
2022/01/17 08:58:19;;;;;;;22.00;8.70;;;;;;;3.55;100.00;101290.81;5013154;28;20030;-74
2022/01/17 09:00:44;;;;;;;22.77;8.23;;;;;;;3.53;100.00;101287.25;5013426;28;20482;-74
2022/01/17 09:03:10;;;;;;;18.02;9.00;;;;;;;3.46;100.00;101280.97;5012093;28;20026;-74
2022/01/17 09:05:36;;;;;;;28.25;9.02;;;;;;;3.51;100.00;101275.75;5013423;28;20026;-75
2022/01/17 09:08:05;;;;;;;21.65;9.77;;;;;;;3.48;100.00;101292.44;5013248;28;20025;-75
2022/01/17 09:10:30;;;;;;;23.02;9.90;;;;;;;3.46;100.00;101287.16;5013421;28;20438;-74
2022/01/17 09:12:57;;;;;;;25.48;10.18;;;;;;;3.50;100.00;101297.78;5013217;28;20544;-74
2022/01/17 09:15:22;;;;;;;24.02;10.35;;;;;;;3.56;100.00;101300.50;5011892;28;20017;-74
2022/01/17 09:17:47;;;;;;;25.55;10.45;;;;;;;3.52;100.00;101291.66;5013556;28;20083;-75
2022/01/17 09:20:13;;;;;;;34.20;10.82;;;;;;;3.53;100.00;101303.09;5013081;28;20018;-75
2022/01/17 09:22:38;;;;;;;27.90;10.48;;;;;;;3.58;100.00;101301.44;5013065;28;20053;-74
2022/01/17 09:25:06;;;;;;;32.10;11.57;;;;;;;3.57;100.00;101289.06;5013111;28;20018;-75
2022/01/17 09:27:33;;;;;;;26.00;10.95;;;;;;;3.58;100.00;101296.16;5013025;28;20041;-74
2022/01/17 09:29:58;;;;;;;25.73;10.38;;;;;;;3.64;100.00;101311.19;5012874;28;20041;-74
2022/01/17 09:32:23;;;;;;;27.20;11.25;;;;;;;3.64;100.00;101309.44;5013193;28;20395;-74
2022/01/17 09:34:48;;;;;;;23.23;10.60;;;;;;;3.65;100.00;101313.84;5013207;28;20113;-75
2022/01/17 09:37:14;;;;;;;27.27;10.13;;;;;;;3.66;100.00;101310.34;5012952;28;20041;-74
2022/01/17 09:39:39;;;;;;;25.75;10.55;;;;;;;3.69;100.00;101310.38;5013017;28;20117;-75
2022/01/17 09:42:06;;;;;;;28.98;10.85;;;;;;;3.74;100.00;101317.47;5013026;28;20495;-74
2022/01/17 09:44:33;;;;;;;26.75;11.60;;;;;;;3.76;100.00;101315.78;5013370;28;20022;-74
2022/01/17 09:47:06;;;;;;;24.23;10.82;;;;;;;3.78;100.00;101309.66;5013104;28;20033;-74
2022/01/17 09:49:43;;;;;;;22.92;10.70;;;;;;;3.83;100.00;101328.22;5012832;28;20479;-75
2022/01/17 09:52:25;;;;;;;22.83;10.63;;;;;;;3.85;100.00;101344.97;5013106;28;20072;-74
2022/01/17 09:54:51;;;;;;;25.95;10.68;;;;;;;3.82;100.00;101337.00;5013146;28;20026;-74
2022/01/17 09:57:18;;;;;;;27.80;10.13;;;;;;;3.83;100.00;101354.63;5013108;28;20178;-74
2022/01/17 09:59:44;;;;;;;21.58;9.68;;;;;;;3.88;100.00;101347.66;5012771;28;20050;-74
2022/01/17 10:02:11;;;;;;;23.75;10.70;;;;;;;3.89;100.00;101344.13;5012831;28;20470;-74
2022/01/17 10:04:37;;;;;;;22.45;9.50;;;;;;;3.97;100.00;101332.81;5012736;28;20100;-74
2022/01/17 10:07:05;;;;;;;21.67;9.57;;;;;;;3.98;100.00;101337.22;5011612;28;20025;-74
2022/01/17 10:09:33;;;;;;;24.75;9.23;;;;;;;4.05;100.00;101327.59;5013635;28;20387;-74
2022/01/17 10:12:04;;;;;;;23.17;9.95;;;;;;;4.01;100.00;101331.97;5015262;28;20065;-74
2022/01/17 10:14:36;;;;;;;19.90;9.40;;;;;;;4.02;100.00;101360.19;5016768;28;20049;-74
2022/01/17 10:17:07;;;;;;;19.48;9.00;;;;;;;4.04;100.00;101329.38;5016817;28;20025;-74
2022/01/17 10:19:32;;;;;;;20.05;9.52;;;;;;;4.09;100.00;101330.34;5016459;28;20025;-74
2022/01/17 10:22:00;;;;;;;21.20;9.45;;;;;;;4.13;100.00;101326.84;5016324;28;20410;-74
2022/01/17 10:25:16;;;;;;;20.98;8.93;;;;;;;4.12;100.00;101326.84;5016602;28;20156;-74
2022/01/17 10:35:24;;;;;;;25.13;8.77;;;;;;;4.21;100.00;101308.47;5016495;28;20086;-74
2022/01/17 10:38:06;;;;;;;23.77;7.82;;;;;;;4.23;100.00;101300.53;5014777;28;20449;-74
2022/01/17 10:40:55;;;;;;;22.58;8.18;;;;;;;4.25;100.00;101325.25;5016002;28;20032;-75
2022/01/17 10:43:32;;;;;;;16.33;7.40;;;;;;;4.30;100.00;101346.47;5016113;28;20026;-74
2022/01/17 10:45:57;;;;;;;20.55;8.07;;;;;;;4.35;100.00;101361.53;5014668;28;20037;-74
2022/01/17 10:48:44;;;;;;;19.85;8.13;;;;;;;4.46;100.00;101360.75;5015789;28;20578;-74
2022/01/17 10:51:12;;;;;;;21.80;7.43;;;;;;;4.46;100.00;101345.78;5015969;28;20113;-74
2022/01/17 10:53:40;;;;;;;26.02;7.75;;;;;;;4.46;100.00;101323.72;5015972;28;20471;-74
2022/01/17 10:56:08;;;;;;;20.60;8.48;;;;;;;4.47;100.00;101322.88;5015816;28;20030;-75
2022/01/17 10:58:37;;;;;;;22.15;8.05;;;;;;;4.54;100.00;101340.59;5015676;28;20111;-75
2022/01/17 11:01:10;;;;;;;26.67;8.20;;;;;;;4.50;100.00;101359.94;5015806;28;20042;-74
2022/01/17 11:03:37;;;;;;;26.55;8.05;;;;;;;4.51;100.00;101374.94;5015720;28;20033;-75
2022/01/17 11:06:09;;;;;;;21.52;7.25;;;;;;;4.57;100.00;101384.72;5015721;28;20080;-74
2022/01/17 11:08:35;;;;;;;18.08;7.50;;;;;;;4.61;100.00;101375.06;5014091;28;20018;-74
2022/01/17 11:11:05;;;;;;;22.33;7.07;;;;;;;4.64;100.00;101361.88;5015379;28;20032;-74
2022/01/17 11:13:32;;;;;;;23.65;8.00;;;;;;;4.71;100.00;101358.44;5015413;28;20106;-74
2022/01/17 11:16:01;;;;;;;27.92;7.78;;;;;;;4.77;100.00;101369.06;5014016;28;20424;-74
2022/01/17 11:18:29;;;;;;;28.60;7.53;;;;;;;4.76;100.00;101383.19;5014128;28;20032;-74
2022/01/17 11:20:57;;;;;;;32.22;7.97;;;;;;;4.76;100.00;101412.31;5015168;28;20478;-75
2022/01/17 11:23:24;;;;;;;24.50;7.18;;;;;;;4.83;100.00;101373.56;5013932;28;20029;-74
2022/01/17 11:25:55;;;;;;;40.08;7.90;;;;;;;4.87;100.00;101345.38;5015203;28;20025;-74
2022/01/17 11:28:29;;;;;;;31.35;7.55;;;;;;;4.90;100.00;101324.22;5015323;28;20025;-74
2022/01/17 11:30:57;;;;;;;24.20;7.20;;;;;;;4.91;100.00;101321.59;5013566;28;20050;-74
2022/01/17 11:33:23;;;;;;;30.17;7.53;;;;;;;4.91;100.00;101332.19;5014886;28;20025;-74
2022/01/17 11:35:52;;;;;;;30.50;7.45;;;;;;;4.93;100.00;101348.06;5014994;28;20478;-74
2022/01/17 11:38:29;;;;;;;25.45;7.53;;;;;;;4.99;100.00;101371.97;5014749;28;20025;-74
2022/01/17 11:40:55;;;;;;;29.77;8.02;;;;;;;5.02;100.00;101361.44;5011672;23;20537;-76